sensor_id;sensor_type;location;lat;lon;timestamp;P1;durP1;ratioP1;P2;durP2;ratioP2
25365;SDS011;13315;48.274;-1.900;2022-12-10T00:01:05;11.13;;;7.82;;
25365;SDS011;13315;48.274;-1.900;2022-12-10T00:03:32;11.13;;;7.57;;
25365;SDS011;13315;48.274;-1.900;2022-12-10T00:06:01;11.48;;;8.55;;
25365;SDS011;13315;48.274;-1.900;2022-12-10T00:08:27;43.83;;;17.98;;
25365;SDS011;13315;48.274;-1.900;2022-12-10T00:10:54;44.58;;;20.05;;
25365;SDS011;13315;48.274;-1.900;2022-12-10T00:13:20;36.42;;;20.02;;
25365;SDS011;13315;48.274;-1.900;2022-12-10T00:15:46;36.53;;;16.20;;
25365;SDS011;13315;48.274;-1.900;2022-12-10T00:18:12;25.73;;;13.45;;
25365;SDS011;13315;48.274;-1.900;2022-12-10T00:20:38;15.00;;;9.52;;
25365;SDS011;13315;48.274;-1.900;2022-12-10T00:23:04;10.32;;;7.65;;
25365;SDS011;13315;48.274;-1.900;2022-12-10T00:25:31;17.17;;;10.07;;
25365;SDS011;13315;48.274;-1.900;2022-12-10T00:27:57;12.88;;;9.00;;
25365;SDS011;13315;48.274;-1.900;2022-12-10T00:30:23;15.98;;;9.45;;
25365;SDS011;13315;48.274;-1.900;2022-12-10T00:32:50;12.73;;;8.45;;
25365;SDS011;13315;48.274;-1.900;2022-12-10T00:35:16;11.27;;;7.60;;
25365;SDS011;13315;48.274;-1.900;2022-12-10T00:37:42;9.68;;;7.07;;
25365;SDS011;13315;48.274;-1.900;2022-12-10T00:40:08;9.90;;;7.40;;
25365;SDS011;13315;48.274;-1.900;2022-12-10T00:42:35;12.27;;;7.13;;
25365;SDS011;13315;48.274;-1.900;2022-12-10T00:45:02;13.25;;;8.25;;
25365;SDS011;13315;48.274;-1.900;2022-12-10T00:47:28;10.80;;;7.32;;
25365;SDS011;13315;48.274;-1.900;2022-12-10T00:49:54;11.75;;;7.68;;
25365;SDS011;13315;48.274;-1.900;2022-12-10T00:52:20;11.85;;;6.75;;
25365;SDS011;13315;48.274;-1.900;2022-12-10T00:54:47;9.98;;;6.13;;
25365;SDS011;13315;48.274;-1.900;2022-12-10T00:57:13;7.75;;;5.95;;
25365;SDS011;13315;48.274;-1.900;2022-12-10T00:59:39;8.57;;;6.60;;
25365;SDS011;13315;48.274;-1.900;2022-12-10T01:02:05;12.45;;;6.97;;
25365;SDS011;13315;48.274;-1.900;2022-12-10T01:04:31;51.60;;;19.70;;
25365;SDS011;13315;48.274;-1.900;2022-12-10T01:06:57;24.55;;;10.63;;
25365;SDS011;13315;48.274;-1.900;2022-12-10T01:09:25;8.32;;;6.55;;
25365;SDS011;13315;48.274;-1.900;2022-12-10T01:11:52;11.40;;;7.13;;
25365;SDS011;13315;48.274;-1.900;2022-12-10T01:14:20;11.20;;;7.43;;
25365;SDS011;13315;48.274;-1.900;2022-12-10T01:16:47;10.30;;;7.32;;
25365;SDS011;13315;48.274;-1.900;2022-12-10T01:19:13;13.95;;;6.97;;
25365;SDS011;13315;48.274;-1.900;2022-12-10T01:21:39;32.47;;;14.75;;
25365;SDS011;13315;48.274;-1.900;2022-12-10T01:24:05;19.80;;;10.85;;
25365;SDS011;13315;48.274;-1.900;2022-12-10T01:26:33;11.80;;;7.65;;
25365;SDS011;13315;48.274;-1.900;2022-12-10T01:28:59;16.25;;;9.02;;
25365;SDS011;13315;48.274;-1.900;2022-12-10T01:31:29;15.88;;;9.30;;
25365;SDS011;13315;48.274;-1.900;2022-12-10T01:33:56;13.02;;;8.88;;
25365;SDS011;13315;48.274;-1.900;2022-12-10T01:36:26;11.18;;;8.43;;
25365;SDS011;13315;48.274;-1.900;2022-12-10T01:38:53;13.35;;;8.25;;
25365;SDS011;13315;48.274;-1.900;2022-12-10T01:41:29;13.93;;;7.97;;
25365;SDS011;13315;48.274;-1.900;2022-12-10T01:44:03;19.63;;;11.32;;
25365;SDS011;13315;48.274;-1.900;2022-12-10T01:46:31;18.15;;;10.82;;
25365;SDS011;13315;48.274;-1.900;2022-12-10T01:48:58;16.80;;;10.60;;
25365;SDS011;13315;48.274;-1.900;2022-12-10T01:51:26;12.77;;;8.90;;
25365;SDS011;13315;48.274;-1.900;2022-12-10T01:53:53;14.48;;;9.40;;
25365;SDS011;13315;48.274;-1.900;2022-12-10T01:56:20;11.52;;;8.88;;
25365;SDS011;13315;48.274;-1.900;2022-12-10T01:58:47;13.23;;;8.45;;
25365;SDS011;13315;48.274;-1.900;2022-12-10T02:01:28;12.10;;;8.70;;
25365;SDS011;13315;48.274;-1.900;2022-12-10T02:08:53;16.10;;;9.63;;
25365;SDS011;13315;48.274;-1.900;2022-12-10T02:11:24;11.63;;;8.52;;
25365;SDS011;13315;48.274;-1.900;2022-12-10T02:13:56;12.65;;;8.80;;
25365;SDS011;13315;48.274;-1.900;2022-12-10T02:16:36;14.52;;;8.93;;
25365;SDS011;13315;48.274;-1.900;2022-12-10T02:21:37;17.10;;;10.30;;
25365;SDS011;13315;48.274;-1.900;2022-12-10T02:24:05;13.48;;;10.05;;
25365;SDS011;13315;48.274;-1.900;2022-12-10T02:29:19;12.75;;;9.20;;
25365;SDS011;13315;48.274;-1.900;2022-12-10T02:34:32;17.55;;;10.38;;
25365;SDS011;13315;48.274;-1.900;2022-12-10T02:37:00;16.17;;;9.35;;
25365;SDS011;13315;48.274;-1.900;2022-12-10T02:39:29;15.35;;;10.38;;
25365;SDS011;13315;48.274;-1.900;2022-12-10T02:41:58;14.73;;;9.65;;
25365;SDS011;13315;48.274;-1.900;2022-12-10T02:44:25;17.40;;;10.20;;
25365;SDS011;13315;48.274;-1.900;2022-12-10T02:46:54;17.88;;;10.02;;
25365;SDS011;13315;48.274;-1.900;2022-12-10T02:49:21;13.23;;;9.65;;
25365;SDS011;13315;48.274;-1.900;2022-12-10T02:51:47;15.48;;;9.23;;
25365;SDS011;13315;48.274;-1.900;2022-12-10T03:00:40;19.45;;;8.98;;
25365;SDS011;13315;48.274;-1.900;2022-12-10T03:02:42;18.10;;;9.65;;
25365;SDS011;13315;48.274;-1.900;2022-12-10T03:07:41;14.68;;;9.88;;
25365;SDS011;13315;48.274;-1.900;2022-12-10T03:12:38;15.25;;;9.60;;
25365;SDS011;13315;48.274;-1.900;2022-12-10T03:15:06;17.98;;;10.57;;
25365;SDS011;13315;48.274;-1.900;2022-12-10T03:17:33;16.55;;;9.48;;
25365;SDS011;13315;48.274;-1.900;2022-12-10T03:20:00;15.48;;;9.43;;
25365;SDS011;13315;48.274;-1.900;2022-12-10T03:22:26;14.13;;;9.35;;
25365;SDS011;13315;48.274;-1.900;2022-12-10T03:24:53;13.55;;;8.73;;
25365;SDS011;13315;48.274;-1.900;2022-12-10T03:27:19;13.20;;;9.60;;
25365;SDS011;13315;48.274;-1.900;2022-12-10T03:29:48;12.15;;;8.55;;
25365;SDS011;13315;48.274;-1.900;2022-12-10T03:32:16;12.98;;;9.07;;
25365;SDS011;13315;48.274;-1.900;2022-12-10T03:34:43;16.42;;;9.30;;
25365;SDS011;13315;48.274;-1.900;2022-12-10T03:37:10;13.60;;;9.35;;
25365;SDS011;13315;48.274;-1.900;2022-12-10T03:39:37;13.52;;;9.10;;
25365;SDS011;13315;48.274;-1.900;2022-12-10T03:42:04;14.68;;;9.23;;
25365;SDS011;13315;48.274;-1.900;2022-12-10T03:44:31;16.17;;;9.73;;
25365;SDS011;13315;48.274;-1.900;2022-12-10T03:46:58;15.82;;;9.48;;
25365;SDS011;13315;48.274;-1.900;2022-12-10T03:49:24;15.38;;;9.35;;
25365;SDS011;13315;48.274;-1.900;2022-12-10T03:51:50;15.27;;;9.50;;
25365;SDS011;13315;48.274;-1.900;2022-12-10T03:54:16;15.32;;;9.70;;
25365;SDS011;13315;48.274;-1.900;2022-12-10T03:56:42;11.70;;;9.18;;
25365;SDS011;13315;48.274;-1.900;2022-12-10T03:59:08;17.02;;;9.15;;
25365;SDS011;13315;48.274;-1.900;2022-12-10T04:01:35;17.58;;;9.88;;
25365;SDS011;13315;48.274;-1.900;2022-12-10T04:04:02;12.63;;;8.63;;
25365;SDS011;13315;48.274;-1.900;2022-12-10T04:06:28;12.32;;;9.38;;
25365;SDS011;13315;48.274;-1.900;2022-12-10T04:08:54;12.38;;;8.55;;
25365;SDS011;13315;48.274;-1.900;2022-12-10T04:11:20;13.57;;;9.15;;
25365;SDS011;13315;48.274;-1.900;2022-12-10T04:13:46;15.80;;;9.80;;
25365;SDS011;13315;48.274;-1.900;2022-12-10T04:16:32;13.70;;;8.88;;
25365;SDS011;13315;48.274;-1.900;2022-12-10T04:19:02;14.30;;;8.75;;
25365;SDS011;13315;48.274;-1.900;2022-12-10T04:21:29;11.98;;;7.82;;
25365;SDS011;13315;48.274;-1.900;2022-12-10T04:24:14;12.00;;;8.23;;
25365;SDS011;13315;48.274;-1.900;2022-12-10T04:27:01;12.15;;;8.32;;
25365;SDS011;13315;48.274;-1.900;2022-12-10T04:29:28;17.77;;;8.88;;
25365;SDS011;13315;48.274;-1.900;2022-12-10T04:31:55;11.95;;;8.02;;
25365;SDS011;13315;48.274;-1.900;2022-12-10T04:34:21;15.60;;;7.15;;
25365;SDS011;13315;48.274;-1.900;2022-12-10T04:36:47;11.95;;;7.57;;
25365;SDS011;13315;48.274;-1.900;2022-12-10T04:39:13;11.35;;;7.50;;
25365;SDS011;13315;48.274;-1.900;2022-12-10T04:41:40;12.32;;;7.82;;
25365;SDS011;13315;48.274;-1.900;2022-12-10T04:44:06;11.73;;;7.63;;
25365;SDS011;13315;48.274;-1.900;2022-12-10T04:46:32;10.70;;;7.47;;
25365;SDS011;13315;48.274;-1.900;2022-12-10T04:48:59;14.13;;;8.40;;
25365;SDS011;13315;48.274;-1.900;2022-12-10T04:51:25;12.43;;;7.22;;
25365;SDS011;13315;48.274;-1.900;2022-12-10T04:53:51;15.20;;;7.68;;
25365;SDS011;13315;48.274;-1.900;2022-12-10T04:56:17;9.93;;;6.75;;
25365;SDS011;13315;48.274;-1.900;2022-12-10T04:58:43;12.32;;;7.45;;
25365;SDS011;13315;48.274;-1.900;2022-12-10T05:01:10;14.57;;;7.90;;
25365;SDS011;13315;48.274;-1.900;2022-12-10T05:03:37;12.83;;;6.73;;
25365;SDS011;13315;48.274;-1.900;2022-12-10T05:06:07;12.05;;;7.18;;
25365;SDS011;13315;48.274;-1.900;2022-12-10T05:08:34;10.07;;;6.65;;
25365;SDS011;13315;48.274;-1.900;2022-12-10T05:11:01;11.27;;;7.05;;
25365;SDS011;13315;48.274;-1.900;2022-12-10T05:13:28;10.02;;;6.53;;
25365;SDS011;13315;48.274;-1.900;2022-12-10T05:15:54;9.38;;;6.63;;
25365;SDS011;13315;48.274;-1.900;2022-12-10T05:18:20;9.90;;;6.50;;
25365;SDS011;13315;48.274;-1.900;2022-12-10T05:20:46;9.07;;;5.45;;
25365;SDS011;13315;48.274;-1.900;2022-12-10T05:23:12;9.80;;;6.13;;
25365;SDS011;13315;48.274;-1.900;2022-12-10T05:28:32;8.20;;;6.15;;
25365;SDS011;13315;48.274;-1.900;2022-12-10T05:30:59;7.80;;;5.70;;
25365;SDS011;13315;48.274;-1.900;2022-12-10T05:33:25;11.35;;;6.22;;
25365;SDS011;13315;48.274;-1.900;2022-12-10T05:35:55;7.40;;;5.30;;
25365;SDS011;13315;48.274;-1.900;2022-12-10T05:38:22;6.78;;;4.47;;
25365;SDS011;13315;48.274;-1.900;2022-12-10T05:40:48;8.02;;;4.40;;
25365;SDS011;13315;48.274;-1.900;2022-12-10T05:43:14;8.25;;;5.25;;
25365;SDS011;13315;48.274;-1.900;2022-12-10T05:45:40;6.95;;;4.68;;
25365;SDS011;13315;48.274;-1.900;2022-12-10T05:48:06;9.20;;;5.30;;
25365;SDS011;13315;48.274;-1.900;2022-12-10T05:50:32;6.35;;;4.55;;
25365;SDS011;13315;48.274;-1.900;2022-12-10T05:52:58;6.97;;;4.80;;
25365;SDS011;13315;48.274;-1.900;2022-12-10T05:55:25;7.35;;;4.57;;
25365;SDS011;13315;48.274;-1.900;2022-12-10T05:57:52;7.28;;;4.72;;
25365;SDS011;13315;48.274;-1.900;2022-12-10T06:00:18;8.32;;;5.20;;
25365;SDS011;13315;48.274;-1.900;2022-12-10T06:02:46;4.03;;;3.55;;
25365;SDS011;13315;48.274;-1.900;2022-12-10T06:05:12;5.25;;;4.22;;
25365;SDS011;13315;48.274;-1.900;2022-12-10T06:07:38;4.68;;;3.67;;
25365;SDS011;13315;48.274;-1.900;2022-12-10T06:10:04;6.35;;;3.63;;
25365;SDS011;13315;48.274;-1.900;2022-12-10T06:12:30;4.13;;;3.53;;
25365;SDS011;13315;48.274;-1.900;2022-12-10T06:14:56;5.43;;;3.95;;
25365;SDS011;13315;48.274;-1.900;2022-12-10T06:17:22;4.22;;;3.58;;
25365;SDS011;13315;48.274;-1.900;2022-12-10T06:19:48;6.20;;;3.60;;
25365;SDS011;13315;48.274;-1.900;2022-12-10T06:22:14;4.07;;;3.22;;
25365;SDS011;13315;48.274;-1.900;2022-12-10T06:24:40;4.65;;;3.40;;
25365;SDS011;13315;48.274;-1.900;2022-12-10T06:27:06;6.07;;;3.63;;
25365;SDS011;13315;48.274;-1.900;2022-12-10T06:29:32;5.93;;;3.67;;
25365;SDS011;13315;48.274;-1.900;2022-12-10T06:31:58;7.20;;;5.25;;
25365;SDS011;13315;48.274;-1.900;2022-12-10T06:34:24;14.25;;;7.07;;
25365;SDS011;13315;48.274;-1.900;2022-12-10T06:36:51;18.23;;;9.05;;
25365;SDS011;13315;48.274;-1.900;2022-12-10T06:39:17;15.27;;;7.32;;
25365;SDS011;13315;48.274;-1.900;2022-12-10T06:41:43;7.03;;;5.25;;
25365;SDS011;13315;48.274;-1.900;2022-12-10T06:44:11;7.18;;;4.05;;
25365;SDS011;13315;48.274;-1.900;2022-12-10T06:46:37;8.65;;;4.50;;
25365;SDS011;13315;48.274;-1.900;2022-12-10T06:49:04;6.00;;;3.58;;
25365;SDS011;13315;48.274;-1.900;2022-12-10T06:51:30;3.42;;;3.10;;
25365;SDS011;13315;48.274;-1.900;2022-12-10T06:53:57;3.22;;;2.50;;
25365;SDS011;13315;48.274;-1.900;2022-12-10T06:56:23;3.65;;;3.15;;
25365;SDS011;13315;48.274;-1.900;2022-12-10T06:58:49;7.10;;;4.50;;
25365;SDS011;13315;48.274;-1.900;2022-12-10T07:01:17;4.80;;;3.72;;
25365;SDS011;13315;48.274;-1.900;2022-12-10T07:03:47;6.18;;;4.40;;
25365;SDS011;13315;48.274;-1.900;2022-12-10T07:06:13;9.40;;;4.85;;
25365;SDS011;13315;48.274;-1.900;2022-12-10T07:08:39;6.10;;;4.63;;
25365;SDS011;13315;48.274;-1.900;2022-12-10T07:11:06;9.57;;;5.28;;
25365;SDS011;13315;48.274;-1.900;2022-12-10T07:13:32;7.57;;;5.25;;
25365;SDS011;13315;48.274;-1.900;2022-12-10T07:15:59;15.77;;;8.60;;
25365;SDS011;13315;48.274;-1.900;2022-12-10T07:18:25;57.08;;;26.73;;
25365;SDS011;13315;48.274;-1.900;2022-12-10T07:20:52;22.00;;;11.25;;
25365;SDS011;13315;48.274;-1.900;2022-12-10T07:23:18;10.50;;;7.82;;
25365;SDS011;13315;48.274;-1.900;2022-12-10T07:25:45;8.63;;;5.72;;
25365;SDS011;13315;48.274;-1.900;2022-12-10T07:28:11;7.50;;;5.22;;
25365;SDS011;13315;48.274;-1.900;2022-12-10T07:30:37;5.93;;;4.85;;
25365;SDS011;13315;48.274;-1.900;2022-12-10T07:33:03;7.50;;;5.65;;
25365;SDS011;13315;48.274;-1.900;2022-12-10T07:35:29;8.68;;;5.50;;
25365;SDS011;13315;48.274;-1.900;2022-12-10T07:37:55;7.80;;;5.70;;
25365;SDS011;13315;48.274;-1.900;2022-12-10T07:40:21;10.52;;;5.38;;
25365;SDS011;13315;48.274;-1.900;2022-12-10T07:42:47;8.05;;;5.80;;
25365;SDS011;13315;48.274;-1.900;2022-12-10T07:45:13;7.53;;;5.55;;
25365;SDS011;13315;48.274;-1.900;2022-12-10T07:47:39;8.82;;;6.38;;
25365;SDS011;13315;48.274;-1.900;2022-12-10T07:50:06;7.32;;;5.38;;
25365;SDS011;13315;48.274;-1.900;2022-12-10T07:52:32;8.75;;;5.85;;
25365;SDS011;13315;48.274;-1.900;2022-12-10T07:54:58;7.32;;;5.68;;
25365;SDS011;13315;48.274;-1.900;2022-12-10T07:57:24;9.02;;;6.00;;
25365;SDS011;13315;48.274;-1.900;2022-12-10T07:59:50;6.90;;;5.43;;
25365;SDS011;13315;48.274;-1.900;2022-12-10T08:02:16;7.88;;;5.55;;
25365;SDS011;13315;48.274;-1.900;2022-12-10T08:04:42;8.50;;;5.93;;
25365;SDS011;13315;48.274;-1.900;2022-12-10T08:07:08;7.32;;;5.75;;
25365;SDS011;13315;48.274;-1.900;2022-12-10T08:09:34;9.38;;;5.40;;
25365;SDS011;13315;48.274;-1.900;2022-12-10T08:12:00;8.77;;;5.75;;
25365;SDS011;13315;48.274;-1.900;2022-12-10T08:14:27;8.38;;;5.90;;
25365;SDS011;13315;48.274;-1.900;2022-12-10T08:16:53;8.38;;;5.90;;
25365;SDS011;13315;48.274;-1.900;2022-12-10T08:19:19;8.13;;;5.20;;
25365;SDS011;13315;48.274;-1.900;2022-12-10T08:21:45;7.75;;;5.47;;
25365;SDS011;13315;48.274;-1.900;2022-12-10T08:24:11;9.30;;;6.00;;
25365;SDS011;13315;48.274;-1.900;2022-12-10T08:26:38;6.70;;;5.07;;
25365;SDS011;13315;48.274;-1.900;2022-12-10T08:29:04;13.00;;;5.70;;
25365;SDS011;13315;48.274;-1.900;2022-12-10T08:31:30;7.68;;;5.53;;
25365;SDS011;13315;48.274;-1.900;2022-12-10T08:33:56;8.65;;;5.43;;
25365;SDS011;13315;48.274;-1.900;2022-12-10T08:36:22;7.57;;;5.25;;
25365;SDS011;13315;48.274;-1.900;2022-12-10T08:38:49;5.78;;;5.18;;
25365;SDS011;13315;48.274;-1.900;2022-12-10T08:41:16;8.20;;;5.25;;
25365;SDS011;13315;48.274;-1.900;2022-12-10T08:43:43;7.10;;;5.30;;
25365;SDS011;13315;48.274;-1.900;2022-12-10T08:46:10;6.80;;;4.97;;
25365;SDS011;13315;48.274;-1.900;2022-12-10T08:48:36;6.07;;;4.88;;
25365;SDS011;13315;48.274;-1.900;2022-12-10T08:51:03;9.07;;;5.53;;
25365;SDS011;13315;48.274;-1.900;2022-12-10T08:53:29;6.78;;;5.10;;
25365;SDS011;13315;48.274;-1.900;2022-12-10T08:55:55;5.47;;;4.63;;
25365;SDS011;13315;48.274;-1.900;2022-12-10T08:58:22;6.55;;;4.80;;
25365;SDS011;13315;48.274;-1.900;2022-12-10T09:00:48;6.05;;;4.90;;
25365;SDS011;13315;48.274;-1.900;2022-12-10T09:03:15;7.03;;;4.43;;
25365;SDS011;13315;48.274;-1.900;2022-12-10T09:05:41;6.97;;;4.93;;
25365;SDS011;13315;48.274;-1.900;2022-12-10T09:08:08;6.15;;;4.50;;
25365;SDS011;13315;48.274;-1.900;2022-12-10T09:10:37;8.32;;;5.40;;
25365;SDS011;13315;48.274;-1.900;2022-12-10T09:15:52;10.35;;;6.00;;
25365;SDS011;13315;48.274;-1.900;2022-12-10T09:18:18;6.97;;;5.20;;
25365;SDS011;13315;48.274;-1.900;2022-12-10T09:20:44;7.63;;;5.28;;
25365;SDS011;13315;48.274;-1.900;2022-12-10T09:23:10;11.85;;;5.47;;
25365;SDS011;13315;48.274;-1.900;2022-12-10T09:25:37;8.32;;;5.43;;
25365;SDS011;13315;48.274;-1.900;2022-12-10T09:28:03;9.48;;;6.05;;
25365;SDS011;13315;48.274;-1.900;2022-12-10T09:30:29;6.25;;;4.43;;
25365;SDS011;13315;48.274;-1.900;2022-12-10T09:32:55;7.93;;;5.95;;
25365;SDS011;13315;48.274;-1.900;2022-12-10T09:35:21;7.50;;;5.13;;
25365;SDS011;13315;48.274;-1.900;2022-12-10T09:37:47;12.07;;;5.57;;
25365;SDS011;13315;48.274;-1.900;2022-12-10T09:40:17;11.40;;;6.57;;
25365;SDS011;13315;48.274;-1.900;2022-12-10T09:50:34;12.52;;;8.20;;
25365;SDS011;13315;48.274;-1.900;2022-12-10T09:53:03;13.85;;;7.60;;
25365;SDS011;13315;48.274;-1.900;2022-12-10T09:55:34;13.52;;;8.27;;
25365;SDS011;13315;48.274;-1.900;2022-12-10T09:58:03;14.15;;;7.07;;
25365;SDS011;13315;48.274;-1.900;2022-12-10T10:00:37;14.93;;;8.05;;
25365;SDS011;13315;48.274;-1.900;2022-12-10T10:03:03;10.50;;;7.00;;
25365;SDS011;13315;48.274;-1.900;2022-12-10T10:05:33;14.48;;;7.30;;
25365;SDS011;13315;48.274;-1.900;2022-12-10T10:08:04;11.98;;;7.40;;
25365;SDS011;13315;48.274;-1.900;2022-12-10T10:10:35;10.27;;;6.88;;
25365;SDS011;13315;48.274;-1.900;2022-12-10T10:15:35;12.30;;;8.45;;
25365;SDS011;13315;48.274;-1.900;2022-12-10T10:18:07;12.48;;;9.23;;
25365;SDS011;13315;48.274;-1.900;2022-12-10T10:20:35;16.00;;;9.82;;
25365;SDS011;13315;48.274;-1.900;2022-12-10T10:23:01;14.40;;;8.85;;
25365;SDS011;13315;48.274;-1.900;2022-12-10T10:25:27;11.68;;;8.35;;
25365;SDS011;13315;48.274;-1.900;2022-12-10T10:27:54;15.02;;;9.30;;
25365;SDS011;13315;48.274;-1.900;2022-12-10T10:30:21;16.42;;;9.23;;
25365;SDS011;13315;48.274;-1.900;2022-12-10T10:32:52;13.52;;;9.38;;
25365;SDS011;13315;48.274;-1.900;2022-12-10T10:37:47;15.63;;;9.25;;
25365;SDS011;13315;48.274;-1.900;2022-12-10T10:40:23;13.80;;;9.02;;
25365;SDS011;13315;48.274;-1.900;2022-12-10T10:42:51;14.27;;;9.40;;
25365;SDS011;13315;48.274;-1.900;2022-12-10T10:48:18;13.85;;;9.02;;
25365;SDS011;13315;48.274;-1.900;2022-12-10T10:50:48;12.55;;;8.77;;
25365;SDS011;13315;48.274;-1.900;2022-12-10T10:53:25;13.50;;;9.02;;
25365;SDS011;13315;48.274;-1.900;2022-12-10T10:55:53;13.55;;;8.55;;
25365;SDS011;13315;48.274;-1.900;2022-12-10T10:58:20;13.23;;;8.52;;
25365;SDS011;13315;48.274;-1.900;2022-12-10T11:00:57;17.58;;;9.20;;
25365;SDS011;13315;48.274;-1.900;2022-12-10T11:03:25;12.45;;;7.97;;
25365;SDS011;13315;48.274;-1.900;2022-12-10T11:05:51;11.70;;;7.57;;
25365;SDS011;13315;48.274;-1.900;2022-12-10T11:08:17;12.23;;;7.60;;
25365;SDS011;13315;48.274;-1.900;2022-12-10T11:10:54;10.10;;;7.38;;
25365;SDS011;13315;48.274;-1.900;2022-12-10T11:13:24;11.15;;;6.88;;
25365;SDS011;13315;48.274;-1.900;2022-12-10T11:16:02;11.13;;;7.65;;
25365;SDS011;13315;48.274;-1.900;2022-12-10T11:18:36;10.13;;;6.63;;
25365;SDS011;13315;48.274;-1.900;2022-12-10T11:21:21;10.15;;;7.10;;
25365;SDS011;13315;48.274;-1.900;2022-12-10T11:23:54;11.15;;;6.05;;
25365;SDS011;13315;48.274;-1.900;2022-12-10T11:34:07;8.63;;;5.88;;
25365;SDS011;13315;48.274;-1.900;2022-12-10T11:44:49;7.45;;;5.65;;
25365;SDS011;13315;48.274;-1.900;2022-12-10T11:47:26;6.13;;;4.85;;
25365;SDS011;13315;48.274;-1.900;2022-12-10T11:50:04;7.75;;;5.90;;
25365;SDS011;13315;48.274;-1.900;2022-12-10T11:55:29;5.63;;;4.65;;
25365;SDS011;13315;48.274;-1.900;2022-12-10T11:58:17;4.03;;;3.63;;
25365;SDS011;13315;48.274;-1.900;2022-12-10T12:01:03;4.75;;;4.15;;
25365;SDS011;13315;48.274;-1.900;2022-12-10T12:06:16;4.30;;;3.88;;
25365;SDS011;13315;48.274;-1.900;2022-12-10T12:16:13;4.68;;;3.55;;
25365;SDS011;13315;48.274;-1.900;2022-12-10T12:21:13;6.60;;;4.32;;
25365;SDS011;13315;48.274;-1.900;2022-12-10T12:31:40;5.07;;;3.92;;
25365;SDS011;13315;48.274;-1.900;2022-12-10T12:36:52;5.25;;;3.85;;
25365;SDS011;13315;48.274;-1.900;2022-12-10T12:46:55;6.05;;;3.58;;
25365;SDS011;13315;48.274;-1.900;2022-12-10T12:54:19;8.65;;;4.28;;
25365;SDS011;13315;48.274;-1.900;2022-12-10T13:01:49;6.00;;;4.20;;
25365;SDS011;13315;48.274;-1.900;2022-12-10T13:04:16;5.40;;;4.15;;
25365;SDS011;13315;48.274;-1.900;2022-12-10T13:06:43;4.90;;;3.88;;
25365;SDS011;13315;48.274;-1.900;2022-12-10T13:09:29;6.55;;;3.85;;
25365;SDS011;13315;48.274;-1.900;2022-12-10T13:14:29;6.75;;;4.45;;
25365;SDS011;13315;48.274;-1.900;2022-12-10T13:17:00;4.88;;;4.07;;
25365;SDS011;13315;48.274;-1.900;2022-12-10T13:19:29;8.35;;;5.18;;
25365;SDS011;13315;48.274;-1.900;2022-12-10T13:22:06;16.02;;;4.88;;
25365;SDS011;13315;48.274;-1.900;2022-12-10T13:32:13;5.05;;;4.53;;
25365;SDS011;13315;48.274;-1.900;2022-12-10T13:34:39;6.47;;;4.18;;
25365;SDS011;13315;48.274;-1.900;2022-12-10T13:39:52;4.82;;;3.67;;
25365;SDS011;13315;48.274;-1.900;2022-12-10T13:42:24;4.15;;;3.53;;
25365;SDS011;13315;48.274;-1.900;2022-12-10T13:47:52;4.20;;;3.28;;
25365;SDS011;13315;48.274;-1.900;2022-12-10T13:52:57;3.95;;;3.30;;
25365;SDS011;13315;48.274;-1.900;2022-12-10T14:00:41;6.22;;;3.88;;
25365;SDS011;13315;48.274;-1.900;2022-12-10T14:08:32;9.48;;;4.28;;
25365;SDS011;13315;48.274;-1.900;2022-12-10T14:10:59;5.68;;;4.53;;
25365;SDS011;13315;48.274;-1.900;2022-12-10T14:13:30;7.22;;;4.25;;
25365;SDS011;13315;48.274;-1.900;2022-12-10T14:15:58;7.60;;;5.00;;
25365;SDS011;13315;48.274;-1.900;2022-12-10T14:18:25;6.22;;;4.88;;
25365;SDS011;13315;48.274;-1.900;2022-12-10T14:20:52;7.18;;;5.00;;
25365;SDS011;13315;48.274;-1.900;2022-12-10T14:23:21;8.45;;;5.60;;
25365;SDS011;13315;48.274;-1.900;2022-12-10T14:26:08;7.63;;;5.47;;
25365;SDS011;13315;48.274;-1.900;2022-12-10T14:28:38;8.07;;;5.65;;
25365;SDS011;13315;48.274;-1.900;2022-12-10T14:31:05;9.65;;;6.07;;
25365;SDS011;13315;48.274;-1.900;2022-12-10T14:33:32;7.68;;;5.80;;
25365;SDS011;13315;48.274;-1.900;2022-12-10T14:35:58;11.80;;;5.85;;
25365;SDS011;13315;48.274;-1.900;2022-12-10T14:38:27;8.05;;;6.43;;
25365;SDS011;13315;48.274;-1.900;2022-12-10T14:40:55;8.73;;;5.93;;
25365;SDS011;13315;48.274;-1.900;2022-12-10T14:43:26;9.75;;;6.45;;
25365;SDS011;13315;48.274;-1.900;2022-12-10T14:45:57;11.13;;;6.50;;
25365;SDS011;13315;48.274;-1.900;2022-12-10T14:48:24;9.00;;;5.80;;
25365;SDS011;13315;48.274;-1.900;2022-12-10T14:50:51;8.45;;;6.00;;
25365;SDS011;13315;48.274;-1.900;2022-12-10T14:53:19;12.77;;;7.53;;
25365;SDS011;13315;48.274;-1.900;2022-12-10T14:55:45;9.43;;;6.10;;
25365;SDS011;13315;48.274;-1.900;2022-12-10T14:58:14;8.02;;;6.07;;
25365;SDS011;13315;48.274;-1.900;2022-12-10T15:00:42;9.23;;;6.53;;
25365;SDS011;13315;48.274;-1.900;2022-12-10T15:03:09;10.32;;;6.22;;
25365;SDS011;13315;48.274;-1.900;2022-12-10T15:05:36;10.45;;;5.88;;
25365;SDS011;13315;48.274;-1.900;2022-12-10T15:08:15;8.73;;;6.38;;
25365;SDS011;13315;48.274;-1.900;2022-12-10T15:13:13;7.10;;;5.57;;
25365;SDS011;13315;48.274;-1.900;2022-12-10T15:15:42;10.15;;;6.18;;
25365;SDS011;13315;48.274;-1.900;2022-12-10T15:25:52;6.65;;;5.13;;
25365;SDS011;13315;48.274;-1.900;2022-12-10T15:30:55;8.25;;;6.93;;
25365;SDS011;13315;48.274;-1.900;2022-12-10T15:35:47;12.75;;;9.90;;
25365;SDS011;13315;48.274;-1.900;2022-12-10T15:38:13;13.68;;;11.10;;
25365;SDS011;13315;48.274;-1.900;2022-12-10T15:40:41;16.05;;;13.15;;
25365;SDS011;13315;48.274;-1.900;2022-12-10T15:45:48;14.82;;;12.18;;
25365;SDS011;13315;48.274;-1.900;2022-12-10T15:48:15;15.35;;;11.07;;
25365;SDS011;13315;48.274;-1.900;2022-12-10T15:50:42;14.85;;;11.07;;
25365;SDS011;13315;48.274;-1.900;2022-12-10T15:53:13;10.73;;;8.88;;
25365;SDS011;13315;48.274;-1.900;2022-12-10T15:55:39;10.55;;;7.25;;
25365;SDS011;13315;48.274;-1.900;2022-12-10T15:58:12;9.23;;;7.10;;
25365;SDS011;13315;48.274;-1.900;2022-12-10T16:00:39;7.32;;;5.50;;
25365;SDS011;13315;48.274;-1.900;2022-12-10T16:03:09;7.40;;;5.60;;
25365;SDS011;13315;48.274;-1.900;2022-12-10T16:05:37;6.90;;;5.05;;
25365;SDS011;13315;48.274;-1.900;2022-12-10T16:08:23;6.13;;;4.93;;
25365;SDS011;13315;48.274;-1.900;2022-12-10T16:10:50;6.13;;;4.60;;
25365;SDS011;13315;48.274;-1.900;2022-12-10T16:13:17;8.82;;;5.00;;
25365;SDS011;13315;48.274;-1.900;2022-12-10T16:15:51;10.20;;;5.65;;
25365;SDS011;13315;48.274;-1.900;2022-12-10T16:18:18;9.48;;;5.57;;
25365;SDS011;13315;48.274;-1.900;2022-12-10T16:20:44;8.40;;;5.15;;
25365;SDS011;13315;48.274;-1.900;2022-12-10T16:23:10;7.07;;;5.65;;
25365;SDS011;13315;48.274;-1.900;2022-12-10T16:25:39;7.72;;;5.15;;
25365;SDS011;13315;48.274;-1.900;2022-12-10T16:28:13;9.70;;;5.30;;
25365;SDS011;13315;48.274;-1.900;2022-12-10T16:30:42;9.40;;;5.45;;
25365;SDS011;13315;48.274;-1.900;2022-12-10T16:33:08;7.78;;;5.60;;
25365;SDS011;13315;48.274;-1.900;2022-12-10T16:35:34;7.70;;;5.07;;
25365;SDS011;13315;48.274;-1.900;2022-12-10T16:38:00;9.88;;;6.15;;
25365;SDS011;13315;48.274;-1.900;2022-12-10T16:40:27;8.00;;;5.70;;
25365;SDS011;13315;48.274;-1.900;2022-12-10T16:42:54;9.70;;;6.53;;
25365;SDS011;13315;48.274;-1.900;2022-12-10T16:45:22;10.98;;;6.75;;
25365;SDS011;13315;48.274;-1.900;2022-12-10T16:47:49;12.27;;;6.45;;
25365;SDS011;13315;48.274;-1.900;2022-12-10T16:50:16;10.23;;;6.78;;
25365;SDS011;13315;48.274;-1.900;2022-12-10T16:52:43;11.55;;;7.30;;
25365;SDS011;13315;48.274;-1.900;2022-12-10T16:55:13;11.30;;;6.97;;
25365;SDS011;13315;48.274;-1.900;2022-12-10T16:57:40;12.43;;;7.07;;
25365;SDS011;13315;48.274;-1.900;2022-12-10T17:00:08;12.70;;;7.85;;
25365;SDS011;13315;48.274;-1.900;2022-12-10T17:02:34;11.40;;;7.25;;